EDT,Max TemperatureF,Mean TemperatureF,Min TemperatureF,Max Dew PointF,MeanDew PointF,Min DewpointF,Max Humidity, Mean Humidity, Min Humidity, Max Sea Level PressureIn, Mean Sea Level PressureIn, Min Sea Level PressureIn, Max VisibilityMiles, Mean VisibilityMiles, Min VisibilityMiles, Max Wind SpeedMPH, Mean Wind SpeedMPH, Max Gust SpeedMPH,PrecipitationIn, CloudCover, Events, WindDirDegrees
2013-3-1,49,40,32,31,28,26,82,59,41,29.90,29.85,29.82,10,10,10,10,6,16,0.00,5,,301
2013-3-2,48,39,30,32,27,24,88,60,40,29.90,29.87,29.81,10,10,10,10,4,,0.00,6,,312
2013-3-3,47,38,30,26,21,18,72,52,33,29.96,29.89,29.82,10,10,10,16,7,26,0.00,5,,297
2013-3-4,50,40,29,30,18,12,93,51,22,30.09,30.03,29.95,10,10,10,14,7,22,0.00,2,,291
2013-3-5,55,41,27,43,31,21,94,72,31,30.10,29.96,29.61,10,10,5,12,2,17,0.18,6,Rain,94
2013-3-6,47,42,37,46,36,31,95,82,67,29.95,29.65,29.46,10,9,2,29,11,41,0.03,7,Rain,296
2013-3-7,51,44,36,31,28,25,72,56,41,30.19,30.09,29.96,10,10,10,18,10,28,0.00,3,,319
2013-3-8,54,43,32,28,25,22,78,52,31,30.25,30.18,30.10,10,10,10,21,9,30,0.00,0,,322
2013-3-9,62,48,33,39,29,25,92,54,26,30.31,30.27,30.24,10,10,10,13,6,17,0.00,0,,344
2013-3-10,67,48,28,41,27,15,94,55,14,30.34,30.28,30.23,10,10,7,8,2,,0.00,0,,111
2013-3-11,76,52,35,50,44,35,97,70,42,30.27,30.13,30.00,10,8,0,13,4,22,0.00,5,Fog,150
2013-3-12,76,62,51,62,54,33,93,76,46,29.99,29.85,29.73,10,10,4,14,8,25,0.38,6,Rain,192
2013-3-13,76,48,38,35,28,18,84,47,24,30.10,30.00,29.92,10,10,10,17,7,30,0.00,3,,305
2013-3-14,76,42,30,31,20,16,89,48,24,30.22,30.15,30.08,10,10,10,17,8,25,0.00,0,,297
2013-3-15,76,44,27,34,27,18,96,55,25,30.18,30.06,29.91,10,10,0,15,4,23,0.00,0,Fog,232
2013-3-16,77,63,49,53,43,34,80,53,31,29.90,29.79,29.64,10,10,10,15,7,24,0.00,3,Rain,223
2013-3-17,77,50,41,53,43,35,94,76,61,30.21,30.04,29.82,10,10,5,15,6,24,0.00,6,,42
2013-3-18,77,42,38,45,41,36,95,92,82,30.21,30.10,29.90,10,5,0,10,6,,0.01,8,Fog-Rain,32
2013-3-19,77,55,42,45,37,18,95,63,20,30.00,29.86,29.80,10,7,1,17,5,25,0.00,4,Rain,282
2013-3-20,77,44,32,36,17,8,93,36,17,30.11,29.98,29.81,10,10,10,8,5,16,0.00,1,,281
2013-3-21,77,38,32,32,23,10,94,56,27,29.96,29.80,29.71,10,10,10,20,6,26,0.00,4,,313
2013-3-22,77,37,23,29,16,11,89,47,19,30.08,30.01,29.96,10,10,10,12,5,18,0.00,0,,265
2013-3-23,77,42,29,34,27,19,92,63,25,30.06,30.00,29.92,10,10,10,6,1,,0.00,5,,285
2013-3-24,77,36,30,39,35,29,96,88,67,29.95,29.75,29.56,10,8,1,18,4,26,0.30,6,Rain,36
2013-3-25,77,42,36,37,32,24,95,73,41,29.78,29.61,29.53,10,9,2,17,6,28,0.00,7,Rain,279
2013-3-26,77,41,32,32,28,25,77,58,40,30.07,29.91,29.79,10,10,10,13,6,18,0.00,4,,282
2013-3-27,77,43,33,28,24,20,78,48,29,30.20,30.13,30.07,10,10,10,16,9,22,0.00,2,,292
2013-3-28,77,44,31,29,24,19,78,48,23,30.28,30.19,30.13,10,10,10,16,6,24,0.00,2,,302
2013-3-29,77,44,28,38,28,24,92,58,24,30.32,30.25,30.18,10,10,10,12,2,18,0.00,3,,294
2013-3-30,77,50,33,44,33,26,95,59,23,30.23,30.17,30.10,10,10,2,9,1,16,0.00,3,,261
2013-3-31,77,56,43,55,48,39,93,77,55,30.13,29.95,29.81,10,10,5,15,4,28,0.25,5,Rain,179